Time;durP1;ratioP1;P1;durP2;ratioP2;P2;SDS_P1;SDS_P2;PMS_P1;PMS_P2;Temp;Humidity;BMP_temperature;BMP_pressure;BME280_temperature;BME280_humidity;BME280_pressure;Samples;Min_cycle;Max_cycle;Signal;HPM_P1;HPM_P2
2023/02/12 00:02:19;;;;;;;31.93;23.37;;;;;;;4.63;100.00;152552.59;5026756;28;20528;-86
2023/02/12 00:04:47;;;;;;;29.40;22.43;;;;;;;4.62;100.00;152550.06;5011762;28;20479;-86
2023/02/12 00:07:14;;;;;;;32.20;24.40;;;;;;;4.63;100.00;152551.34;5010998;28;20445;-85
2023/02/12 00:09:41;;;;;;;29.17;23.97;;;;;;;4.62;100.00;152550.06;5028114;28;20543;-86
2023/02/12 00:12:08;;;;;;;32.50;24.80;;;;;;;4.62;100.00;152548.75;5025591;28;20990;-85
2023/02/12 00:14:36;;;;;;;33.20;25.50;;;;;;;4.61;100.00;152547.47;5029408;28;20499;-86
2023/02/12 00:17:04;;;;;;;32.67;22.13;;;;;;;4.61;100.00;152546.16;5029962;28;20574;-85
2023/02/12 00:19:31;;;;;;;37.03;25.20;;;;;;;4.61;100.00;152546.16;5028624;28;20474;-86
2023/02/12 00:21:58;;;;;;;28.80;24.00;;;;;;;4.60;100.00;152544.91;5040225;28;20467;-85
2023/02/12 00:24:25;;;;;;;28.30;22.20;;;;;;;4.61;100.00;152547.47;5019615;28;21054;-85
2023/02/12 00:26:52;;;;;;;29.20;23.93;;;;;;;4.61;100.00;152547.47;5034511;28;20445;-86
2023/02/12 00:29:19;;;;;;;32.67;24.97;;;;;;;4.60;100.00;152544.91;5027647;28;20460;-85
2023/02/12 00:31:45;;;;;;;35.23;24.20;;;;;;;4.61;100.00;152547.47;5028138;28;20555;-85
2023/02/12 00:34:13;;;;;;;35.60;23.70;;;;;;;4.60;100.00;152544.91;5028234;28;20990;-85
2023/02/12 00:36:41;;;;;;;32.80;25.10;;;;;;;4.61;100.00;152547.47;5027550;28;20722;-85
2023/02/12 00:39:07;;;;;;;31.50;23.50;;;;;;;4.61;100.00;152547.47;5011168;28;20867;-86
2023/02/12 00:41:35;;;;;;;28.60;21.93;;;;;;;4.59;100.00;152542.31;5029143;28;20461;-85
2023/02/12 00:44:02;;;;;;;32.43;23.97;;;;;;;4.62;100.00;152550.06;5024555;28;20484;-86
2023/02/12 00:46:29;;;;;;;33.63;24.27;;;;;;;4.62;100.00;152550.06;5012223;28;20531;-85
2023/02/12 00:48:55;;;;;;;30.57;23.57;;;;;;;4.63;100.00;152552.59;5026229;28;20522;-86
2023/02/12 00:51:23;;;;;;;29.17;24.80;;;;;;;4.62;100.00;152550.06;5026920;28;20479;-86
2023/02/12 00:53:50;;;;;;;27.97;22.87;;;;;;;4.62;100.00;152550.06;5011076;28;20886;-85
2023/02/12 00:56:17;;;;;;;31.63;24.40;;;;;;;4.61;100.00;152547.47;5044837;28;20504;-85
2023/02/12 00:58:43;;;;;;;25.67;22.33;;;;;;;4.63;100.00;152552.59;5024566;28;20558;-85
2023/02/12 01:01:10;;;;;;;31.20;23.13;;;;;;;4.61;100.00;152547.47;5012243;28;20451;-85
2023/02/12 01:03:38;;;;;;;27.63;21.63;;;;;;;4.61;100.00;152547.47;5025710;28;20451;-85
2023/02/12 01:06:05;;;;;;;28.50;23.43;;;;;;;4.62;100.00;152550.06;5012102;28;20441;-86
2023/02/12 01:08:33;;;;;;;25.73;21.27;;;;;;;4.62;100.00;152550.06;5008315;28;20461;-86
2023/02/12 01:11:01;;;;;;;29.97;23.00;;;;;;;4.62;100.00;152548.75;5027599;28;21069;-86
2023/02/12 01:13:29;;;;;;;33.27;24.63;;;;;;;4.62;100.00;152548.75;5008815;28;20484;-86
2023/02/12 01:16:07;;;;;;;27.17;21.73;;;;;;;4.62;100.00;152550.06;5012545;28;20454;-86
2023/02/12 01:18:35;;;;;;;30.47;23.37;;;;;;;4.62;100.00;152550.06;5011271;28;20447;-86
2023/02/12 01:21:01;;;;;;;28.37;22.37;;;;;;;4.61;100.00;152547.47;5024062;28;20556;-86
2023/02/12 01:23:28;;;;;;;26.67;21.77;;;;;;;4.59;100.00;152542.31;5027501;28;20453;-86
2023/02/12 01:25:58;;;;;;;28.23;22.40;;;;;;;4.59;100.00;152542.31;5040036;28;20578;-86
2023/02/12 01:28:25;;;;;;;31.33;22.97;;;;;;;4.59;100.00;152542.31;5026501;28;20801;-86
2023/02/12 01:30:51;;;;;;;25.43;21.23;;;;;;;4.61;100.00;152546.16;5009636;28;20530;-86
2023/02/12 01:33:19;;;;;;;30.43;23.20;;;;;;;4.59;100.00;152542.31;5028868;28;20468;-86
2023/02/12 01:36:05;;;;;;;28.70;23.10;;;;;;;4.61;100.00;152546.16;5011524;28;20459;-86
2023/02/12 01:38:32;;;;;;;30.00;22.53;;;;;;;4.61;100.00;152546.16;5026531;28;20458;-86
2023/02/12 01:41:04;;;;;;;27.30;21.43;;;;;;;4.59;100.00;152542.31;5012689;28;20459;-86
2023/02/12 01:43:31;;;;;;;26.77;21.83;;;;;;;4.62;100.00;152550.06;4997697;28;20435;-86
2023/02/12 01:45:59;;;;;;;32.33;25.33;;;;;;;4.62;100.00;152550.06;5031519;28;20458;-86
2023/02/12 01:48:28;;;;;;;30.63;23.33;;;;;;;4.63;100.00;152551.34;5027540;28;20486;-86
2023/02/12 01:50:56;;;;;;;27.97;22.43;;;;;;;4.63;100.00;152552.59;4994582;28;20455;-86
2023/02/12 01:53:26;;;;;;;30.43;23.73;;;;;;;4.64;100.00;152553.91;5024015;28;20523;-86
2023/02/12 01:55:58;;;;;;;32.03;23.80;;;;;;;4.65;100.00;152556.50;5020215;28;20469;-86
2023/02/12 01:58:29;;;;;;;32.90;23.67;;;;;;;4.63;100.00;152552.59;5010355;28;20453;-86
2023/02/12 02:00:56;;;;;;;31.10;25.07;;;;;;;4.62;100.00;152548.75;5026979;28;20487;-85
2023/02/12 02:03:23;;;;;;;27.80;22.80;;;;;;;4.62;100.00;152550.06;5053905;28;20438;-86
2023/02/12 02:05:56;;;;;;;31.17;24.10;;;;;;;4.64;100.00;152555.19;5021215;28;20558;-86
2023/02/12 02:08:23;;;;;;;29.43;22.80;;;;;;;4.62;100.00;152548.75;5010179;28;20480;-86
2023/02/12 02:10:50;;;;;;;32.70;25.67;;;;;;;4.63;100.00;152551.34;5005583;28;20558;-85
2023/02/12 02:16:11;;;;;;;31.57;22.37;;;;;;;4.61;100.00;152547.47;5026509;28;20470;-85
2023/02/12 02:18:42;;;;;;;31.93;22.57;;;;;;;4.61;100.00;152547.47;5004200;28;20482;-86
2023/02/12 02:21:28;;;;;;;28.60;22.30;;;;;;;4.60;100.00;152544.91;5028856;28;20490;-86
2023/02/12 02:24:22;;;;;;;31.10;23.80;;;;;;;4.58;100.00;152539.72;5036520;28;20448;-85
2023/02/12 02:26:57;;;;;;;29.50;22.57;;;;;;;4.59;100.00;152542.31;5032079;28;20559;-86
2023/02/12 02:30:14;;;;;;;30.20;24.50;;;;;;;4.59;100.00;152542.31;5027242;28;20851;-86
2023/02/12 02:32:46;;;;;;;33.27;23.83;;;;;;;4.58;100.00;152539.72;5017680;28;21225;-86
2023/02/12 02:35:16;;;;;;;29.60;23.80;;;;;;;4.57;100.00;152537.19;5023789;28;20467;-86
2023/02/12 02:37:48;;;;;;;29.93;23.20;;;;;;;4.58;100.00;152539.72;5026451;28;20461;-86
2023/02/12 02:40:18;;;;;;;29.53;24.80;;;;;;;4.59;100.00;152541.03;5021247;28;20556;-86
2023/02/12 02:42:51;;;;;;;32.77;23.77;;;;;;;4.58;100.00;152538.47;5032437;28;20480;-86
2023/02/12 02:45:21;;;;;;;34.20;25.17;;;;;;;4.58;100.00;152539.72;5007928;28;20548;-86
2023/02/12 02:47:52;;;;;;;31.80;24.27;;;;;;;4.58;100.00;152539.72;5011934;28;20443;-86
2023/02/12 02:50:21;;;;;;;29.43;23.90;;;;;;;4.58;100.00;152538.47;5026725;28;20441;-86
2023/02/12 02:52:50;;;;;;;33.60;25.30;;;;;;;4.58;100.00;152539.72;4995774;28;20475;-86
2023/02/12 02:55:19;;;;;;;32.97;24.60;;;;;;;4.56;100.00;152534.59;5024694;28;20469;-86
2023/02/12 02:57:47;;;;;;;36.50;25.57;;;;;;;4.58;100.00;152538.47;5026514;28;20522;-85
2023/02/12 03:00:18;;;;;;;33.23;25.70;;;;;;;4.57;100.00;152537.19;5026679;28;20456;-86
2023/02/12 03:02:49;;;;;;;32.40;23.67;;;;;;;4.58;100.00;152539.72;5022933;28;20477;-86
2023/02/12 03:05:19;;;;;;;35.17;24.90;;;;;;;4.58;100.00;152539.72;5010341;28;20457;-86
2023/02/12 03:07:48;;;;;;;26.87;22.60;;;;;;;4.58;100.00;152539.72;5011523;28;20429;-85
2023/02/12 03:10:18;;;;;;;30.90;24.53;;;;;;;4.58;100.00;152538.47;5021535;28;21010;-86
2023/02/12 03:12:50;;;;;;;32.53;24.50;;;;;;;4.59;100.00;152542.31;5020944;28;20507;-86
2023/02/12 03:15:23;;;;;;;30.67;26.07;;;;;;;4.63;100.00;152551.34;4998778;28;20536;-86
2023/02/12 03:17:50;;;;;;;29.90;23.00;;;;;;;4.63;100.00;152552.59;5021574;28;20534;-86
2023/02/12 03:20:21;;;;;;;30.53;23.30;;;;;;;4.57;100.00;152537.19;5024127;28;20547;-85
2023/02/12 03:22:51;;;;;;;34.87;25.90;;;;;;;4.53;100.00;152526.84;5009396;28;20848;-86
2023/02/12 03:25:20;;;;;;;32.83;26.13;;;;;;;4.53;100.00;152526.84;5033351;28;20508;-86
2023/02/12 03:27:49;;;;;;;29.13;23.50;;;;;;;4.51;100.00;152521.69;5003615;28;20452;-85
2023/02/12 03:30:16;;;;;;;29.70;23.60;;;;;;;4.52;100.00;152524.28;5019321;28;20955;-86
2023/02/12 03:32:49;;;;;;;32.30;23.97;;;;;;;4.51;100.00;152521.69;5025735;28;20504;-86
2023/02/12 03:35:20;;;;;;;29.33;22.70;;;;;;;4.50;100.00;152519.09;5025900;28;20519;-86
2023/02/12 03:37:52;;;;;;;29.43;22.97;;;;;;;4.48;100.00;152513.97;5020912;28;20818;-86
2023/02/12 03:40:22;;;;;;;37.60;26.10;;;;;;;4.47;100.00;152510.13;5008522;28;20792;-86
2023/02/12 03:42:56;;;;;;;36.10;24.87;;;;;;;4.48;100.00;152512.66;5025273;28;20445;-86
2023/02/12 03:45:32;;;;;;;28.43;24.93;;;;;;;4.45;100.00;152506.22;5024285;28;20491;-85
2023/02/12 03:48:02;;;;;;;31.83;24.73;;;;;;;4.46;100.00;152508.81;5025533;28;20815;-86
2023/02/12 03:50:38;;;;;;;29.73;24.10;;;;;;;4.46;100.00;152508.81;5025900;28;20823;-86
2023/02/12 03:53:06;;;;;;;30.53;23.53;;;;;;;4.48;100.00;152512.66;5014588;28;20465;-86
2023/02/12 03:55:35;;;;;;;37.47;25.40;;;;;;;4.48;100.00;152513.97;5011277;28;20662;-86
2023/02/12 03:58:03;;;;;;;33.57;26.13;;;;;;;4.49;100.00;152515.25;5023678;28;20455;-85
2023/02/12 04:00:30;;;;;;;30.37;24.30;;;;;;;4.50;100.00;152519.09;5016693;28;20470;-85
2023/02/12 04:02:57;;;;;;;31.23;23.60;;;;;;;4.51;100.00;152520.41;5008734;28;20456;-86
2023/02/12 04:05:26;;;;;;;33.63;23.43;;;;;;;4.51;100.00;152521.69;5008394;28;20547;-85
2023/02/12 04:07:55;;;;;;;36.33;26.47;;;;;;;4.51;100.00;152520.41;5026935;28;20480;-85
2023/02/12 04:10:27;;;;;;;30.80;24.73;;;;;;;4.49;100.00;152515.25;5022608;28;20568;-85
2023/02/12 04:12:57;;;;;;;34.60;26.27;;;;;;;4.46;100.00;152508.81;5025568;28;20493;-85
2023/02/12 04:15:40;;;;;;;35.30;26.60;;;;;;;4.46;100.00;152508.81;5025740;28;20453;-85
2023/02/12 04:18:10;;;;;;;33.93;25.03;;;;;;;4.46;100.00;152508.81;5019297;28;20463;-85
2023/02/12 04:20:42;;;;;;;33.17;25.00;;;;;;;4.45;100.00;152504.97;5023900;28;20934;-86
2023/02/12 04:23:17;;;;;;;35.50;26.47;;;;;;;4.45;100.00;152504.97;5013918;28;20444;-85
2023/02/12 04:25:53;;;;;;;34.67;24.37;;;;;;;4.44;100.00;152503.69;5020444;28;20492;-86
2023/02/12 04:28:28;;;;;;;35.20;27.20;;;;;;;4.43;100.00;152501.09;5010795;28;20451;-86
2023/02/12 04:30:57;;;;;;;36.50;27.47;;;;;;;4.49;100.00;152516.56;5024017;28;20459;-86
2023/02/12 04:33:25;;;;;;;33.33;25.83;;;;;;;4.42;100.00;152497.25;5039212;28;20475;-85
2023/02/12 04:35:55;;;;;;;36.57;27.03;;;;;;;4.34;100.00;152476.63;5028968;28;20480;-85
2023/02/12 04:38:25;;;;;;;31.13;24.80;;;;;;;4.32;100.00;152472.75;5025914;28;20453;-86
2023/02/12 04:40:52;;;;;;;33.27;26.53;;;;;;;4.29;100.00;152465.00;5027937;28;20455;-85
2023/02/12 04:43:27;;;;;;;32.33;25.77;;;;;;;4.31;100.00;152470.19;5012401;28;20847;-85
2023/02/12 04:45:54;;;;;;;35.70;27.00;;;;;;;4.29;100.00;152465.00;5006617;28;20463;-86
2023/02/12 04:48:20;;;;;;;34.20;26.90;;;;;;;4.29;100.00;152465.00;5004918;28;20460;-86
2023/02/12 04:50:47;;;;;;;34.80;26.97;;;;;;;4.32;100.00;152474.03;5024253;28;20626;-85
2023/02/12 04:53:15;;;;;;;39.20;26.60;;;;;;;4.32;100.00;152474.03;5020837;28;20855;-85
2023/02/12 04:55:43;;;;;;;35.67;27.90;;;;;;;4.32;100.00;152472.75;5027395;28;20833;-85
2023/02/12 04:58:10;;;;;;;36.63;27.17;;;;;;;4.29;100.00;152465.00;5026452;28;20441;-85
2023/02/12 05:00:37;;;;;;;38.60;27.40;;;;;;;4.27;100.00;152459.88;5026918;28;20538;-85
2023/02/12 05:03:04;;;;;;;40.00;28.87;;;;;;;4.28;100.00;152462.47;5025731;28;20543;-85
2023/02/12 05:05:30;;;;;;;38.60;29.10;;;;;;;4.28;100.00;152463.75;5011051;28;20848;-85
2023/02/12 05:07:57;;;;;;;40.60;28.13;;;;;;;4.36;100.00;152483.06;5014028;28;20464;-85
2023/02/12 05:10:24;;;;;;;36.20;27.70;;;;;;;4.36;100.00;152483.06;5029406;28;20457;-85
2023/02/12 05:12:53;;;;;;;34.90;26.60;;;;;;;4.35;100.00;152480.47;5010781;28;20538;-85
2023/02/12 05:15:20;;;;;;;36.13;27.53;;;;;;;4.32;100.00;152474.03;5027851;28;20495;-85
2023/02/12 05:17:47;;;;;;;45.37;28.90;;;;;;;4.31;100.00;152470.19;5024046;28;20510;-85
2023/02/12 05:20:14;;;;;;;47.93;30.23;;;;;;;4.32;100.00;152472.75;5027355;28;20547;-85
2023/02/12 05:22:40;;;;;;;38.00;29.10;;;;;;;4.34;100.00;152477.94;5028241;28;20946;-85
2023/02/12 05:25:07;;;;;;;39.13;27.70;;;;;;;4.34;100.00;152477.94;5021178;28;20588;-85
2023/02/12 05:27:34;;;;;;;37.30;28.57;;;;;;;4.45;100.00;152504.97;5025097;28;20456;-85
2023/02/12 05:30:04;;;;;;;37.70;27.80;;;;;;;4.48;100.00;152513.97;5027285;28;20468;-85
2023/02/12 05:32:31;;;;;;;34.17;26.57;;;;;;;4.41;100.00;152495.94;5024418;28;20462;-85
2023/02/12 05:34:57;;;;;;;41.33;28.00;;;;;;;4.37;100.00;152485.63;5011220;28;20480;-85
2023/02/12 05:37:24;;;;;;;38.60;27.20;;;;;;;4.36;100.00;152483.06;5033696;28;20814;-85
2023/02/12 05:39:51;;;;;;;37.43;27.63;;;;;;;4.36;100.00;152483.06;5007594;28;20458;-85
2023/02/12 05:42:18;;;;;;;35.40;27.03;;;;;;;4.37;100.00;152484.38;5017041;28;20448;-85
2023/02/12 05:44:44;;;;;;;37.80;27.53;;;;;;;4.37;100.00;152484.38;5021618;28;20499;-86
2023/02/12 05:47:12;;;;;;;31.57;24.83;;;;;;;4.37;100.00;152485.63;4999907;28;20544;-86
2023/02/12 05:49:39;;;;;;;38.23;26.80;;;;;;;4.36;100.00;152483.06;5010633;28;20507;-85
2023/02/12 05:52:06;;;;;;;35.70;27.20;;;;;;;4.36;100.00;152481.78;5005961;28;20452;-86
2023/02/12 05:54:33;;;;;;;36.17;26.27;;;;;;;4.35;100.00;152480.47;5017883;28;20479;-85
2023/02/12 05:56:59;;;;;;;33.40;24.90;;;;;;;4.36;100.00;152483.06;5030502;28;20441;-85
2023/02/12 05:59:29;;;;;;;36.90;26.77;;;;;;;4.35;100.00;152480.47;5029129;28;20487;-85
2023/02/12 06:02:10;;;;;;;33.43;28.20;;;;;;;4.35;100.00;152479.19;4995221;28;20445;-85
2023/02/12 06:04:45;;;;;;;31.33;26.03;;;;;;;4.34;100.00;152477.94;5011255;28;20459;-85
2023/02/12 06:07:16;;;;;;;34.47;25.50;;;;;;;4.35;100.00;152480.47;5031679;28;20557;-85
2023/02/12 06:09:46;;;;;;;35.33;25.87;;;;;;;4.34;100.00;152477.94;5031210;28;20455;-86
2023/02/12 06:12:25;;;;;;;35.60;27.20;;;;;;;4.36;100.00;152483.06;5010161;28;20761;-85
2023/02/12 06:14:57;;;;;;;36.17;26.70;;;;;;;4.34;100.00;152477.94;5031080;28;20523;-85
2023/02/12 06:17:27;;;;;;;38.20;25.97;;;;;;;4.35;100.00;152479.19;5016043;28;20448;-85
2023/02/12 06:19:58;;;;;;;33.60;25.90;;;;;;;4.35;100.00;152480.47;5045358;28;20459;-85
2023/02/12 06:22:29;;;;;;;35.70;25.77;;;;;;;4.35;100.00;152480.47;5030060;28;20948;-85
2023/02/12 06:25:38;;;;;;;;;;;;;;;;;;;;;
2023/02/12 06:28:05;;;;;;;33.67;25.17;;;;;;;4.36;100.00;152483.06;5011407;28;20538;-86
2023/02/12 06:30:33;;;;;;;34.53;26.57;;;;;;;4.37;100.00;152485.63;5031759;28;20465;-85
2023/02/12 06:33:01;;;;;;;33.70;25.50;;;;;;;4.36;100.00;152483.06;5030179;28;20449;-85
2023/02/12 06:35:29;;;;;;;35.90;26.27;;;;;;;4.39;100.00;152490.81;5017054;28;20506;-86
2023/02/12 06:37:55;;;;;;;33.67;25.57;;;;;;;4.40;100.00;152492.06;5030829;28;20789;-85
2023/02/12 06:40:22;;;;;;;36.40;27.63;;;;;;;4.39;100.00;152489.50;5030851;28;20452;-86
2023/02/12 06:42:49;;;;;;;33.67;25.90;;;;;;;4.40;100.00;152492.06;5030346;28;20535;-85
2023/02/12 06:45:16;;;;;;;38.40;26.07;;;;;;;4.40;100.00;152492.06;5024848;28;20890;-86
2023/02/12 06:47:43;;;;;;;39.20;26.47;;;;;;;4.38;100.00;152488.22;5009395;28;20452;-86
2023/02/12 06:50:10;;;;;;;35.27;26.37;;;;;;;4.38;100.00;152486.91;5029241;28;20454;-85
2023/02/12 06:52:38;;;;;;;35.60;27.77;;;;;;;4.37;100.00;152485.63;5017901;28;20453;-85
2023/02/12 06:55:05;;;;;;;35.07;27.43;;;;;;;4.36;100.00;152483.06;5014677;28;21060;-85
2023/02/12 06:57:32;;;;;;;37.20;28.27;;;;;;;4.37;100.00;152484.38;5030369;28;22075;-85
2023/02/12 06:59:59;;;;;;;34.63;26.90;;;;;;;4.31;100.00;152471.44;5030642;28;20547;-85
2023/02/12 07:02:25;;;;;;;38.03;28.17;;;;;;;4.30;100.00;152467.59;5031403;28;20454;-86
2023/02/12 07:04:52;;;;;;;37.43;27.67;;;;;;;4.28;100.00;152462.47;5030168;28;20461;-86
2023/02/12 07:07:19;;;;;;;36.70;27.57;;;;;;;4.26;100.00;152458.56;5000112;28;20461;-86
2023/02/12 07:09:47;;;;;;;36.77;26.93;;;;;;;4.27;100.00;152459.88;5017471;28;21063;-87
2023/02/12 07:12:13;;;;;;;48.60;38.10;;;;;;;4.21;100.00;152444.41;5032601;28;20950;-86
2023/02/12 07:14:40;;;;;;;41.83;31.97;;;;;;;4.21;100.00;152444.41;5033256;28;20926;-87
2023/02/12 07:17:08;;;;;;;40.00;30.50;;;;;;;4.24;100.00;152453.44;5014780;28;20491;-87
2023/02/12 07:19:35;;;;;;;38.77;30.23;;;;;;;4.26;100.00;152457.31;5036442;28;20800;-86
2023/02/12 07:22:02;;;;;;;38.37;30.93;;;;;;;4.27;100.00;152459.88;5024626;28;20442;-85
2023/02/12 07:24:29;;;;;;;34.43;26.57;;;;;;;4.30;100.00;152467.59;5008025;28;20519;-86
2023/02/12 07:26:57;;;;;;;33.63;28.27;;;;;;;4.32;100.00;152472.75;5014007;28;20456;-86
2023/02/12 07:29:23;;;;;;;34.70;28.93;;;;;;;4.32;100.00;152474.03;5038922;28;20550;-84
2023/02/12 07:31:50;;;;;;;37.47;29.07;;;;;;;4.37;100.00;152484.38;5037203;28;20445;-86
2023/02/12 07:34:17;;;;;;;37.23;29.43;;;;;;;4.38;100.00;152488.22;5029494;28;20477;-86
2023/02/12 07:36:43;;;;;;;40.90;31.93;;;;;;;4.42;100.00;152497.25;5015597;28;20509;-84
2023/02/12 07:39:11;;;;;;;38.63;29.70;;;;;;;4.43;100.00;152499.78;5032678;28;20455;-85
2023/02/12 07:41:38;;;;;;;36.87;30.00;;;;;;;4.48;100.00;152513.97;5032497;28;21108;-85
2023/02/12 07:44:09;;;;;;;37.93;29.10;;;;;;;4.46;100.00;152507.53;5028448;28;20818;-86
2023/02/12 07:46:37;;;;;;;38.00;27.03;;;;;;;4.45;100.00;152506.22;5022338;28;20542;-86
2023/02/12 07:49:06;;;;;;;35.70;27.60;;;;;;;4.48;100.00;152513.97;5016975;28;20449;-86
2023/02/12 07:51:34;;;;;;;40.10;29.70;;;;;;;4.68;100.00;152565.53;5041765;28;20868;-85
2023/02/12 07:54:01;;;;;;;39.53;30.60;;;;;;;4.66;100.00;152560.34;5026307;28;20471;-85
2023/02/12 07:56:31;;;;;;;41.23;29.33;;;;;;;4.76;100.00;152586.16;5026214;28;20450;-87
2023/02/12 07:58:59;;;;;;;43.33;30.47;;;;;;;4.57;100.00;152535.88;5011248;28;20538;-86
2023/02/12 08:01:29;;;;;;;42.60;31.40;;;;;;;4.50;100.00;152519.09;5021386;28;20833;-86
2023/02/12 08:03:58;;;;;;;41.97;31.97;;;;;;;4.58;100.00;152539.72;5039992;28;21041;-86
2023/02/12 08:06:26;;;;;;;41.00;31.73;;;;;;;4.55;100.00;152532.03;5027566;28;20965;-86
2023/02/12 08:08:54;;;;;;;42.27;31.03;;;;;;;4.54;100.00;152529.44;5016279;28;20559;-86
2023/02/12 08:11:21;;;;;;;37.77;30.37;;;;;;;4.62;100.00;152550.06;5021806;28;20455;-86
2023/02/12 08:13:48;;;;;;;43.57;30.13;;;;;;;4.62;100.00;152550.06;5026515;28;20469;-86
2023/02/12 08:16:17;;;;;;;40.20;30.10;;;;;;;4.69;100.00;152568.06;5025403;28;20615;-86
2023/02/12 08:18:45;;;;;;;42.83;32.27;;;;;;;4.72;100.00;152575.81;5003130;28;20452;-86
2023/02/12 08:21:13;;;;;;;49.80;36.47;;;;;;;4.86;100.00;152611.91;5019332;28;20463;-85
2023/02/12 08:23:41;;;;;;;55.73;39.70;;;;;;;4.83;100.00;152604.16;5025219;28;20452;-86
2023/02/12 08:26:09;;;;;;;49.73;34.20;;;;;;;4.85;100.00;152609.31;5035972;28;20485;-86
2023/02/12 08:28:37;;;;;;;41.50;30.90;;;;;;;4.93;100.00;152628.63;5030276;28;20872;-86
2023/02/12 08:31:05;;;;;;;42.60;31.27;;;;;;;4.97;100.00;152637.69;5016091;28;20460;-86
2023/02/12 08:33:31;;;;;;;37.00;29.03;;;;;;;5.03;100.00;152653.16;5032840;28;20460;-86
2023/02/12 08:36:05;;;;;;;40.57;30.90;;;;;;;5.10;100.00;152672.47;5012153;28;20476;-86
2023/02/12 08:38:32;;;;;;;43.37;31.10;;;;;;;5.15;100.00;152685.38;5034807;28;20585;-86
2023/02/12 08:41:02;;;;;;;43.90;31.07;;;;;;;5.20;100.00;152696.94;5028937;28;20464;-86
2023/02/12 08:43:29;;;;;;;43.10;32.50;;;;;;;5.10;100.00;152671.19;5033185;28;20467;-86
2023/02/12 08:45:56;;;;;;;45.23;33.47;;;;;;;5.22;100.00;152702.09;5034660;28;21042;-87
2023/02/12 08:48:23;;;;;;;42.57;32.73;;;;;;;5.25;100.00;152709.84;5026982;28;20777;-86
2023/02/12 08:50:50;;;;;;;43.43;31.30;;;;;;;5.23;100.00;152704.69;5027038;28;20455;-86
2023/02/12 08:53:18;;;;;;;46.03;33.03;;;;;;;5.29;100.00;152721.47;5023084;28;20459;-86
2023/02/12 08:55:48;;;;;;;44.57;30.17;;;;;;;5.42;100.00;152753.69;5026444;28;20926;-86
2023/02/12 08:58:15;;;;;;;49.40;33.13;;;;;;;5.34;100.00;152734.38;5031076;28;20558;-86
2023/02/12 09:00:42;;;;;;;49.53;34.43;;;;;;;5.49;100.00;152771.72;5016088;28;20483;-86
2023/02/12 09:03:08;;;;;;;36.90;28.10;;;;;;;5.50;100.00;152775.63;5030861;28;20990;-86
2023/02/12 09:05:38;;;;;;;41.07;29.70;;;;;;;5.60;100.00;152800.09;5034563;28;20448;-85
2023/02/12 09:08:05;;;;;;;35.93;25.87;;;;;;;5.67;100.00;152818.16;5035123;28;20941;-86
2023/02/12 09:10:33;;;;;;;36.30;27.90;;;;;;;5.65;100.00;152813.00;5020941;28;20451;-86
2023/02/12 09:13:00;;;;;;;38.27;27.33;;;;;;;5.64;100.00;152809.16;5018372;28;20454;-86
2023/02/12 09:15:27;;;;;;;28.10;20.43;;;;;;;5.73;100.00;152833.63;5016568;28;20582;-86
2023/02/12 09:17:53;;;;;;;36.60;26.87;;;;;;;5.72;100.00;152831.03;5033923;28;20442;-86
2023/02/12 09:20:20;;;;;;;36.27;25.50;;;;;;;5.75;100.00;152838.78;5030585;28;20460;-86
2023/02/12 09:22:46;;;;;;;29.20;22.50;;;;;;;5.73;100.00;152833.63;5035510;28;20437;-86
2023/02/12 09:25:13;;;;;;;28.67;21.17;;;;;;;5.75;100.00;152838.78;5019319;28;20484;-86
2023/02/12 09:27:41;;;;;;;32.30;23.03;;;;;;;5.77;100.00;152843.94;5030711;28;20521;-86
2023/02/12 09:30:09;;;;;;;30.87;25.20;;;;;;;5.92;100.00;152881.41;5017963;28;20504;-86
2023/02/12 09:32:36;;;;;;;28.40;21.80;;;;;;;5.87;100.00;152868.50;5037823;28;20493;-86
2023/02/12 09:35:03;;;;;;;36.83;26.97;;;;;;;5.93;100.00;152885.25;5018235;28;20546;-86
2023/02/12 09:37:29;;;;;;;32.07;23.80;;;;;;;5.96;100.00;152893.00;5020061;28;20475;-86
2023/02/12 09:39:56;;;;;;;31.90;24.47;;;;;;;5.95;100.00;152890.44;5033191;28;20492;-86
2023/02/12 09:42:47;;;;;;;29.10;21.10;;;;;;;6.10;100.00;152929.13;5026184;28;20844;-86
2023/02/12 09:45:18;;;;;;;24.63;17.17;;;;;;;6.05;100.00;152914.94;5022241;28;20986;-86
2023/02/12 09:47:50;;;;;;;17.37;13.30;;;;;;;6.08;100.00;152922.69;5029665;28;20486;-86
2023/02/12 09:50:31;;;;;;;16.47;12.27;;;;;;;6.20;100.00;152953.63;5024099;28;20441;-86
2023/02/12 09:52:58;;;;;;;20.10;14.53;;;;;;;6.31;100.00;152982.03;5044157;28;20452;-86
2023/02/12 09:55:28;;;;;;;16.27;11.77;;;;;;;6.46;100.00;153020.72;5031334;28;20526;-86
2023/02/12 09:57:56;;;;;;;21.30;16.97;;;;;;;6.55;100.00;153042.66;5031625;28;20441;-86
2023/02/12 10:00:26;;;;;;;11.03;9.23;;;;;;;6.50;100.00;153029.75;5003052;28;20476;-86
2023/02/12 10:02:54;;;;;;;14.97;10.90;;;;;;;6.48;100.00;153024.63;5019866;28;20816;-86
2023/02/12 10:05:25;;;;;;;12.43;8.30;;;;;;;6.51;100.00;153032.38;5003580;28;20445;-85
2023/02/12 10:08:10;;;;;;;12.73;9.73;;;;;;;6.49;99.85;153027.16;5032242;28;20452;-85
2023/02/12 10:10:50;;;;;;;9.77;7.97;;;;;;;6.52;99.50;153034.91;5012368;28;20461;-86
2023/02/12 10:13:27;;;;;;;10.37;7.97;;;;;;;6.52;100.00;153034.91;5022709;28;21026;-86
2023/02/12 10:15:59;;;;;;;14.30;11.20;;;;;;;6.59;99.51;153054.28;5015910;28;20564;-86
2023/02/12 10:18:50;;;;;;;10.67;8.43;;;;;;;6.83;98.53;153114.94;5026996;28;20525;-86
2023/02/12 10:21:27;;;;;;;7.83;6.20;;;;;;;6.87;97.29;153123.97;5000144;28;20986;-86
2023/02/12 10:24:06;;;;;;;10.10;7.47;;;;;;;6.71;98.59;153083.97;5029511;28;20558;-86
2023/02/12 10:26:38;;;;;;;9.50;7.40;;;;;;;6.90;97.63;153133.03;5030718;28;20449;-86
2023/02/12 10:29:12;;;;;;;10.60;8.53;;;;;;;6.77;98.12;153098.19;5048568;28;20448;-86
2023/02/12 10:31:42;;;;;;;13.13;9.27;;;;;;;6.82;98.46;153112.38;5047385;28;20453;-86
2023/02/12 10:34:15;;;;;;;11.90;9.00;;;;;;;6.72;99.00;153086.56;5029150;28;20485;-86
2023/02/12 10:36:44;;;;;;;14.40;10.43;;;;;;;6.80;98.13;153105.91;5023692;28;20492;-86
2023/02/12 10:39:15;;;;;;;18.33;14.70;;;;;;;6.79;98.33;153104.63;5028463;28;20449;-86
2023/02/12 10:41:47;;;;;;;10.77;8.60;;;;;;;6.73;99.16;153089.13;5019474;28;20453;-86
2023/02/12 10:44:15;;;;;;;12.83;9.10;;;;;;;7.00;97.42;153158.84;5024817;28;20450;-85
2023/02/12 10:46:42;;;;;;;9.40;8.40;;;;;;;6.88;98.33;153126.59;5024117;28;21030;-86
2023/02/12 10:49:11;;;;;;;9.70;7.03;;;;;;;7.06;97.93;153174.34;5029413;28;20547;-86
2023/02/12 10:51:48;;;;;;;8.30;7.20;;;;;;;7.06;97.38;153173.03;5033444;28;20453;-85
2023/02/12 10:54:42;;;;;;;10.93;9.83;;;;;;;7.03;96.85;153166.59;5025547;28;20452;-85
2023/02/12 10:57:12;;;;;;;8.17;6.67;;;;;;;6.96;97.52;153147.25;5031850;28;20546;-86
2023/02/12 10:59:40;;;;;;;11.00;8.30;;;;;;;6.98;97.67;153153.69;5034966;28;20817;-85
2023/02/12 11:02:21;;;;;;;6.80;5.87;;;;;;;7.10;97.35;153184.66;5031441;28;20460;-86
2023/02/12 11:04:48;;;;;;;7.63;5.93;;;;;;;6.99;97.23;153155.00;5028807;28;20483;-86
2023/02/12 11:07:15;;;;;;;11.27;7.83;;;;;;;6.98;97.71;153153.69;5015784;28;20979;-86
2023/02/12 11:09:45;;;;;;;7.90;6.37;;;;;;;7.00;97.40;153158.84;5028355;28;20834;-86
2023/02/12 11:12:20;;;;;;;7.00;6.10;;;;;;;7.02;98.04;153164.00;5032262;28;20472;-85
2023/02/12 11:14:50;;;;;;;9.53;6.30;;;;;;;7.18;96.57;153205.31;5025942;28;20468;-85
2023/02/12 11:17:24;;;;;;;7.50;6.50;;;;;;;7.25;96.61;153223.38;5014122;28;20544;-86
2023/02/12 11:20:03;;;;;;;11.33;9.30;;;;;;;7.17;96.73;153202.75;5033313;28;20524;-85
2023/02/12 11:22:30;;;;;;;6.73;6.03;;;;;;;7.22;97.57;153215.66;5015632;28;20547;-85
2023/02/12 11:25:00;;;;;;;7.10;5.97;;;;;;;7.21;96.42;153213.06;5028385;28;20516;-86
2023/02/12 11:27:29;;;;;;;7.70;6.20;;;;;;;7.27;96.74;153228.56;5021574;28;20467;-85